createdAt,value
2018-08-17T04:10:38.649Z,100.00
2018-08-17T04:13:09.261Z,100.00
2018-08-17T04:15:39.968Z,98.26
2018-08-17T04:18:10.821Z,97.19
2018-08-17T04:20:41.636Z,97.31
2018-08-17T04:23:11.847Z,95.87
2018-08-17T04:25:42.650Z,92.87
2018-08-17T04:28:14.137Z,90.93
2018-08-17T04:30:47.122Z,90.19
2018-08-17T04:33:17.675Z,88.24
2018-08-17T04:35:52.406Z,87.19
2018-08-17T04:38:22.902Z,86.49
2018-08-17T04:40:59.379Z,85.20
2018-08-17T04:43:31.228Z,85.70
2018-08-17T04:46:02.174Z,79.26
2018-08-17T04:48:33.434Z,75.14
2018-08-17T04:51:04.214Z,73.96
2018-08-17T04:53:34.922Z,72.68
2018-08-17T04:56:05.732Z,72.06
2018-08-17T04:58:36.327Z,70.72
2018-08-17T05:01:07.245Z,71.75
2018-08-17T05:03:37.841Z,71.47
2018-08-17T05:06:08.478Z,72.38
2018-08-17T05:08:39.044Z,70.43
2018-08-17T05:11:09.781Z,68.65
2018-08-17T05:13:40.590Z,66.93
2018-08-17T05:16:11.300Z,65.34
2018-08-17T05:18:41.953Z,66.62
2018-08-17T05:21:12.368Z,67.34
2018-08-17T05:23:43.005Z,65.86
2018-08-17T05:26:14.116Z,65.56
2018-08-17T05:28:44.790Z,63.21
2018-08-17T05:31:15.493Z,63.61
2018-08-17T05:33:46.158Z,63.96
2018-08-17T05:36:16.845Z,62.42
2018-08-17T05:38:47.481Z,63.17
2018-08-17T05:41:18.298Z,63.60
2018-08-17T05:43:48.920Z,65.72
2018-08-17T05:46:19.740Z,66.14
2018-08-17T05:48:50.241Z,66.63
2018-08-17T05:51:20.906Z,64.75
2018-08-17T05:53:51.476Z,64.19
2018-08-17T05:56:22.036Z,62.00
2018-08-17T05:58:52.528Z,60.88
2018-08-17T06:01:24.245Z,59.33
2018-08-17T06:03:54.772Z,59.32
2018-08-17T06:06:25.526Z,60.54
2018-08-17T06:08:56.215Z,63.33
2018-08-17T06:11:26.958Z,62.00
2018-08-17T06:13:57.526Z,61.00
2018-08-17T06:16:28.338Z,59.50
2018-08-17T06:18:58.956Z,57.91
2018-08-17T06:21:29.638Z,56.98
2018-08-17T06:24:00.302Z,57.04
2018-08-17T06:26:30.997Z,56.97
2018-08-17T06:29:01.665Z,55.85
2018-08-17T06:31:32.154Z,54.70
2018-08-17T06:34:02.776Z,54.73
2018-08-17T06:36:33.704Z,55.71
2018-08-17T06:39:05.521Z,53.18
2018-08-17T06:41:36.213Z,53.29
2018-08-17T06:44:06.933Z,52.07
2018-08-17T06:46:37.737Z,52.15
2018-08-17T06:49:08.357Z,51.09
2018-08-17T06:51:39.098Z,50.11
2018-08-17T06:54:09.576Z,48.66
2018-08-17T06:56:40.310Z,49.42
2018-08-17T06:59:10.930Z,48.17
2018-08-17T07:01:41.609Z,48.74
2018-08-17T07:04:12.129Z,48.00
2018-08-17T07:06:42.861Z,48.05
2018-08-17T07:09:13.532Z,48.28
2018-08-17T07:11:44.308Z,46.25
2018-08-17T07:14:14.846Z,46.11
2018-08-17T07:16:45.352Z,44.33
2018-08-17T07:19:15.800Z,45.32
2018-08-17T07:21:46.509Z,44.08
2018-08-17T07:24:17.105Z,44.66
2018-08-17T07:26:47.765Z,45.14
2018-08-17T07:29:18.320Z,45.20
2018-08-17T07:31:48.995Z,42.67
2018-08-17T07:34:19.480Z,44.25
2018-08-17T07:36:50.121Z,44.92
2018-08-17T07:39:20.760Z,43.85
2018-08-17T07:41:51.322Z,42.64
2018-08-17T07:44:21.777Z,42.60
2018-08-17T07:46:52.489Z,42.34
2018-08-17T07:49:23.085Z,42.85
2018-08-17T07:51:53.896Z,42.22
2018-08-17T07:54:24.549Z,42.11
2018-08-17T07:56:55.273Z,42.85
2018-08-17T07:59:25.934Z,40.18
2018-08-17T08:01:56.572Z,41.34
2018-08-17T08:04:27.105Z,41.39
2018-08-17T08:06:57.782Z,39.43
2018-08-17T08:09:28.355Z,38.56
2018-08-17T08:11:58.896Z,38.27
2018-08-17T08:14:29.597Z,38.68
2018-08-17T08:17:00.360Z,37.88
2018-08-17T08:19:30.945Z,37.25
2018-08-17T08:22:01.659Z,35.35
2018-08-17T08:24:37.642Z,34.42
2018-08-17T08:27:09.482Z,34.05
2018-08-17T08:29:40.253Z,34.02
2018-08-17T08:32:11.020Z,34.00
2018-08-17T08:34:41.668Z,32.48
2018-08-17T08:37:12.277Z,33.34
2018-08-17T08:39:43.044Z,30.81
2018-08-17T08:42:13.838Z,28.02
2018-08-17T08:44:44.590Z,28.25
2018-08-17T08:47:15.293Z,28.49
2018-08-17T08:49:46.027Z,26.51
2018-08-17T08:52:17.025Z,28.41
2018-08-17T08:54:47.629Z,26.89
2018-08-17T08:57:18.337Z,27.48
2018-08-17T08:59:49.376Z,28.38
2018-08-17T09:02:20.205Z,29.01
2018-08-17T09:04:50.734Z,27.01
2018-08-17T09:07:21.425Z,28.55
2018-08-17T09:09:52.149Z,27.50
2018-08-17T09:12:22.877Z,26.87
2018-08-17T09:14:53.603Z,28.94
2018-08-17T09:17:24.344Z,27.53
2018-08-17T09:19:54.857Z,26.16
2018-08-17T09:22:25.607Z,25.58
2018-08-17T09:24:56.174Z,25.41
2018-08-17T09:27:27.025Z,23.64
2018-08-17T09:29:57.697Z,26.76
2018-08-17T09:32:28.373Z,24.50
2018-08-17T09:34:59.177Z,28.42
2018-08-17T09:37:29.905Z,24.94
2018-08-17T09:40:00.528Z,24.26
2018-08-17T09:42:31.340Z,24.89
2018-08-17T09:45:01.931Z,23.86
2018-08-17T09:47:32.598Z,23.93
2018-08-17T09:50:03.234Z,23.59
2018-08-17T09:52:33.872Z,22.95
2018-08-17T09:55:04.440Z,23.52
2018-08-17T09:57:35.102Z,22.83
2018-08-17T10:00:07.086Z,21.83
2018-08-17T10:02:42.800Z,20.17
2018-08-17T10:05:18.283Z,24.87
2018-08-17T10:07:53.981Z,21.87
2018-08-17T10:10:25.737Z,20.69
2018-08-17T10:12:56.546Z,22.08
2018-08-17T10:15:27.342Z,21.65
2018-08-17T10:17:58.109Z,22.40
2018-08-17T10:20:28.648Z,22.13
2018-08-17T10:22:59.453Z,20.69
2018-08-17T10:25:30.181Z,20.90
2018-08-17T10:28:01.068Z,21.34
2018-08-17T10:30:31.596Z,20.70
2018-08-17T10:33:02.262Z,22.22
2018-08-17T10:35:34.606Z,21.47
2018-08-17T10:38:06.422Z,21.89
2018-08-17T10:40:37.126Z,18.73
2018-08-17T10:43:08.054Z,18.03
2018-08-17T10:45:38.460Z,18.63
2018-08-17T10:48:09.294Z,21.39
2018-08-17T10:50:39.872Z,25.76
2018-08-17T10:53:10.693Z,29.81
2018-08-17T10:55:46.377Z,29.74
2018-08-17T10:58:18.485Z,27.03
2018-08-17T11:00:49.088Z,29.41
2018-08-17T11:03:19.983Z,28.83
2018-08-17T11:05:50.565Z,25.23
2018-08-17T11:08:21.385Z,25.78
2018-08-17T11:10:52.045Z,26.17
2018-08-17T11:13:22.832Z,26.41
2018-08-17T11:15:53.638Z,29.08
2018-08-17T11:18:24.349Z,24.99
2018-08-17T11:20:56.109Z,24.96
2018-08-17T11:23:26.663Z,22.78
2018-08-17T11:25:57.308Z,22.98
2018-08-17T11:28:28.349Z,23.64
2018-08-17T11:30:58.851Z,23.38
2018-08-17T11:33:30.357Z,25.12
2018-08-17T11:36:01.058Z,24.40
2018-08-17T11:38:31.846Z,25.13
2018-08-17T11:41:02.537Z,24.91
2018-08-17T11:43:33.434Z,25.71
2018-08-17T11:46:04.018Z,22.63
2018-08-17T11:48:35.585Z,23.66
2018-08-17T11:51:06.305Z,21.43
2018-08-17T11:53:37.182Z,20.61
2018-08-17T11:56:07.877Z,21.34
2018-08-17T11:58:38.698Z,21.81
2018-08-17T12:01:15.318Z,19.88
2018-08-17T12:03:46.282Z,19.90
2018-08-17T12:06:16.862Z,23.92
2018-08-17T12:08:47.529Z,21.19
2018-08-17T12:11:18.049Z,21.64
2018-08-17T12:13:48.632Z,23.15
2018-08-17T12:16:19.302Z,19.98
2018-08-17T12:18:51.020Z,22.25
2018-08-17T12:21:21.676Z,25.41
2018-08-17T12:23:52.426Z,26.66
2018-08-17T12:26:23.861Z,25.76
2018-08-17T12:28:54.529Z,26.08
2018-08-17T12:31:25.193Z,26.53
2018-08-17T12:33:55.933Z,27.41
2018-08-17T12:36:26.549Z,26.18
2018-08-17T12:38:57.181Z,27.22
2018-08-17T12:41:28.017Z,27.61
2018-08-17T12:43:59.885Z,29.02
2018-08-17T12:46:30.485Z,28.96
2018-08-17T12:49:01.209Z,29.64
2018-08-17T12:51:31.860Z,28.42
2018-08-17T12:54:02.943Z,28.50
2018-08-17T12:56:33.427Z,28.37
2018-08-17T12:59:04.057Z,27.93
2018-08-17T13:01:34.621Z,28.03
2018-08-17T13:04:05.390Z,28.95
2018-08-17T13:06:35.965Z,28.18
2018-08-17T13:09:07.903Z,28.53
2018-08-17T13:11:44.294Z,29.67
2018-08-17T13:14:14.970Z,27.62
2018-08-17T13:16:45.714Z,27.43
2018-08-17T13:19:17.112Z,28.19
2018-08-17T13:21:47.709Z,29.00
2018-08-17T13:24:18.533Z,27.40
2018-08-17T13:26:49.233Z,27.48
2018-08-17T13:29:20.345Z,27.20
2018-08-17T13:31:50.941Z,27.97
2018-08-17T13:34:21.437Z,27.78
2018-08-17T13:36:52.121Z,28.31
2018-08-17T13:39:22.851Z,27.68
2018-08-17T13:41:53.356Z,27.36
2018-08-17T13:44:24.805Z,27.25
2018-08-17T13:46:55.457Z,26.97
2018-08-17T13:49:26.093Z,27.53
2018-08-17T13:51:56.728Z,26.15
2018-08-17T13:54:27.358Z,25.40
2018-08-17T13:56:58.098Z,25.97
2018-08-17T13:59:29.070Z,25.65
2018-08-17T14:01:59.698Z,26.40
2018-08-17T14:04:30.284Z,24.60
2018-08-17T14:07:00.935Z,25.01
2018-08-17T14:09:32.450Z,24.51
2018-08-17T14:12:03.164Z,24.84
2018-08-17T14:14:35.292Z,25.73
2018-08-17T14:17:06.382Z,26.06
2018-08-17T14:19:37.190Z,26.57
2018-08-17T14:22:08.049Z,25.65
2018-08-17T14:24:38.809Z,25.20
2018-08-17T14:27:09.458Z,25.26
2018-08-17T14:29:40.295Z,25.58
2018-08-17T14:32:10.829Z,24.37
2018-08-17T14:34:41.489Z,24.86
2018-08-17T14:37:12.064Z,23.77
2018-08-17T14:39:42.878Z,24.61
2018-08-17T14:42:13.480Z,23.73
2018-08-17T14:44:44.316Z,23.84
2018-08-17T14:47:15.189Z,25.07
2018-08-17T14:49:45.973Z,24.42
2018-08-17T14:52:16.632Z,24.58
2018-08-17T14:54:47.377Z,24.97
2018-08-17T14:57:17.886Z,24.18
2018-08-17T14:59:48.792Z,23.96
2018-08-17T15:02:19.301Z,23.91
2018-08-17T15:04:50.833Z,23.69
2018-08-17T15:07:21.448Z,23.20
2018-08-17T15:09:52.242Z,24.17
2018-08-17T15:12:22.737Z,23.98
2018-08-17T15:14:54.384Z,24.96
2018-08-17T15:17:24.840Z,25.14
2018-08-17T15:19:56.637Z,24.39
2018-08-17T15:22:27.331Z,23.55
2018-08-17T15:24:58.660Z,22.29
2018-08-17T15:27:29.456Z,22.88
2018-08-17T15:30:00.264Z,23.49
2018-08-17T15:32:30.996Z,24.90
2018-08-17T15:35:02.541Z,25.19
2018-08-17T15:37:35.405Z,24.81
2018-08-17T15:40:06.961Z,28.51
2018-08-17T15:42:37.625Z,29.25
2018-08-17T15:45:09.129Z,29.08
2018-08-17T15:47:39.819Z,29.42
2018-08-17T15:50:21.526Z,28.75
2018-08-17T15:52:52.386Z,30.68
2018-08-17T15:55:23.182Z,32.28
2018-08-17T15:57:53.872Z,30.84
2018-08-17T16:00:26.032Z,29.97
2018-08-17T16:02:56.712Z,27.43
2018-08-17T16:05:27.442Z,26.99
2018-08-17T16:07:58.145Z,26.22
2018-08-17T16:10:29.065Z,27.16
2018-08-17T16:12:59.660Z,27.95
2018-08-17T16:15:30.441Z,28.91
2018-08-17T16:18:01.234Z,28.31
2018-08-17T16:20:31.813Z,26.40
2018-08-17T16:23:02.436Z,27.47
2018-08-17T16:25:33.030Z,27.58
2018-08-17T16:28:04.013Z,27.64
2018-08-17T16:30:34.893Z,29.27
2018-08-17T16:33:05.680Z,31.06
2018-08-17T16:35:37.337Z,31.21
2018-08-17T16:38:08.288Z,32.43
2018-08-17T16:40:45.477Z,32.95
2018-08-17T16:43:17.033Z,33.27
2018-08-17T16:45:49.066Z,33.68
2018-08-17T16:48:20.917Z,33.67
2018-08-17T16:53:03.940Z,34.55
2018-08-17T16:55:34.510Z,34.18
2018-08-17T16:58:05.250Z,34.87
2018-08-17T17:00:36.014Z,35.68
2018-08-17T17:03:06.906Z,36.26
2018-08-17T17:05:37.549Z,37.03
2018-08-17T17:08:08.473Z,36.70
2018-08-17T17:10:39.061Z,36.78
2018-08-17T17:13:10.354Z,36.98
2018-08-17T17:15:40.856Z,37.70
2018-08-17T17:18:11.674Z,36.92
2018-08-17T17:20:42.246Z,36.68
2018-08-17T17:23:14.197Z,36.34
2018-08-17T17:25:44.801Z,35.89
2018-08-17T17:28:15.368Z,35.88
2018-08-17T17:30:51.231Z,34.86
2018-08-17T17:33:22.684Z,36.44
2018-08-17T17:35:53.353Z,36.69
2018-08-17T17:38:23.848Z,36.38
2018-08-17T17:40:54.569Z,36.10
2018-08-17T17:43:25.286Z,36.06
2018-08-17T17:45:57.041Z,37.07
2018-08-17T17:48:27.678Z,37.51
2018-08-17T17:50:58.100Z,37.75
2018-08-17T17:53:28.747Z,39.16
2018-08-17T17:55:59.602Z,39.48
2018-08-17T17:58:30.311Z,41.90
2018-08-17T18:01:06.170Z,42.58
2018-08-17T18:03:37.014Z,41.85
2018-08-17T18:06:09.338Z,41.67
2018-08-17T18:08:39.957Z,41.37
2018-08-17T18:11:10.701Z,39.90
2018-08-17T18:13:41.317Z,38.33
2018-08-17T18:16:11.977Z,38.49
2018-08-17T18:18:42.645Z,37.91
2018-08-17T18:21:14.166Z,37.63
2018-08-17T18:23:44.876Z,36.86
2018-08-17T18:26:20.049Z,36.54
2018-08-17T18:28:50.636Z,36.89
2018-08-17T18:31:21.508Z,36.55
2018-08-17T18:33:52.022Z,36.19
2018-08-17T18:36:23.405Z,36.33
2018-08-17T18:38:54.073Z,35.65
2018-08-17T18:41:24.917Z,36.69
2018-08-17T18:43:55.544Z,36.94
2018-08-17T18:46:26.361Z,36.56
2018-08-17T18:48:57.086Z,36.82
2018-08-17T18:51:29.020Z,36.92
2018-08-17T18:53:59.712Z,37.48
2018-08-17T18:56:31.289Z,37.95
2018-08-17T18:59:02.021Z,38.07
2018-08-17T19:01:33.935Z,38.09
2018-08-17T19:04:04.693Z,37.90
2018-08-17T19:06:35.437Z,37.00
2018-08-17T19:09:08.232Z,36.90
2018-08-17T19:11:39.128Z,37.11
2018-08-17T19:14:09.838Z,37.05
2018-08-17T19:16:40.721Z,36.61
2018-08-17T19:19:11.244Z,36.95
2018-08-17T19:21:42.673Z,37.52
2018-08-17T19:24:13.713Z,37.19
2018-08-17T19:26:44.353Z,37.52
2018-08-17T19:29:15.057Z,36.72
2018-08-17T19:31:50.957Z,36.27
2018-08-17T19:34:21.696Z,36.17
2018-08-17T19:36:52.573Z,36.08
2018-08-17T19:39:27.102Z,36.39
2018-08-17T19:41:57.680Z,35.25
2018-08-17T19:44:28.304Z,35.72
2018-08-17T19:46:59.744Z,35.05
2018-08-17T19:49:30.545Z,35.17
2018-08-17T19:52:01.288Z,35.24
2018-08-17T19:54:31.759Z,35.48
2018-08-17T19:57:04.084Z,35.32
2018-08-17T19:59:34.812Z,35.23
2018-08-17T20:02:05.609Z,35.63
2018-08-17T20:04:36.145Z,35.50
2018-08-17T20:07:09.322Z,36.07
2018-08-17T20:09:40.614Z,37.15
2018-08-17T20:12:11.986Z,37.08
2018-08-17T20:14:42.440Z,38.12
2018-08-17T20:17:14.589Z,37.22
2018-08-17T20:19:48.963Z,38.13
2018-08-17T20:22:24.298Z,38.17
2018-08-17T20:24:55.006Z,37.30
2018-08-17T20:27:26.216Z,38.02
2018-08-17T20:30:05.877Z,36.79
2018-08-17T20:32:36.713Z,36.82
2018-08-17T20:35:07.609Z,36.66
2018-08-17T20:37:46.802Z,36.18
2018-08-17T20:40:18.193Z,36.35
2018-08-17T20:42:49.388Z,36.29
2018-08-17T20:45:23.313Z,35.86
2018-08-17T20:47:54.022Z,35.78
2018-08-17T20:50:24.572Z,36.08
2018-08-17T20:52:59.137Z,35.47
2018-08-17T20:55:29.817Z,35.88
2018-08-17T20:58:00.617Z,35.39
2018-08-17T21:00:31.411Z,35.99
2018-08-17T21:03:02.804Z,35.64
2018-08-17T21:05:33.437Z,35.62
2018-08-17T21:08:04.242Z,36.06
2018-08-17T21:10:34.816Z,36.60
2018-08-17T21:13:06.312Z,36.66
2018-08-17T21:15:36.969Z,35.78
2018-08-17T21:18:07.773Z,35.67
2018-08-17T21:20:38.384Z,37.83
2018-08-17T21:23:09.328Z,40.32
2018-08-17T21:25:40.009Z,39.84
2018-08-17T21:28:10.721Z,37.90
2018-08-17T21:30:41.298Z,37.66
2018-08-17T21:33:11.982Z,37.10
2018-08-17T21:35:42.653Z,37.70
2018-08-17T21:38:14.253Z,40.10
2018-08-17T21:40:44.769Z,41.49
2018-08-17T21:43:16.628Z,41.07
2018-08-17T21:45:49.109Z,40.33
2018-08-17T21:48:25.792Z,38.42
2018-08-17T21:50:56.380Z,38.88
2018-08-17T21:53:27.180Z,39.56
2018-08-17T21:55:57.568Z,38.79
2018-08-17T21:58:28.392Z,40.86
2018-08-17T22:00:59.155Z,39.48
2018-08-17T22:03:36.353Z,41.11
2018-08-17T22:06:07.108Z,42.08
2018-08-17T22:08:38.501Z,41.93
2018-08-17T22:11:09.360Z,41.97
2018-08-17T22:13:40.019Z,42.32
2018-08-17T22:16:10.548Z,41.86
2018-08-17T22:18:41.298Z,43.25
2018-08-17T22:21:11.946Z,44.18
2018-08-17T22:23:45.132Z,45.15
2018-08-17T22:26:18.516Z,45.10
2018-08-17T22:28:49.290Z,44.99
2018-08-17T22:31:35.801Z,46.25
2018-08-17T22:34:07.121Z,45.01
2018-08-17T22:36:37.776Z,45.29
2018-08-17T22:39:09.889Z,44.38
2018-08-17T22:41:40.700Z,44.56
2018-08-17T22:44:17.049Z,44.92
2018-08-17T22:47:03.789Z,44.53
2018-08-17T22:49:35.571Z,44.87
2018-08-17T22:52:06.443Z,44.62
2018-08-17T22:54:46.912Z,45.09
2018-08-17T22:57:17.921Z,46.06
2018-08-17T22:59:53.766Z,45.08
2018-08-17T23:02:24.378Z,45.26
2018-08-17T23:04:56.457Z,44.63
2018-08-17T23:07:27.095Z,45.84
2018-08-17T23:09:57.804Z,45.26
2018-08-17T23:12:28.352Z,44.43
2018-08-17T23:15:00.392Z,44.41
2018-08-17T23:17:30.877Z,45.19
2018-08-17T23:20:01.676Z,45.19
2018-08-17T23:22:32.367Z,45.19
2018-08-17T23:25:03.096Z,44.64
2018-08-17T23:27:33.835Z,44.23
2018-08-17T23:30:04.644Z,45.79
2018-08-17T23:32:35.173Z,44.61
2018-08-17T23:35:06.085Z,45.78
2018-08-17T23:37:36.764Z,44.45
2018-08-17T23:40:09.180Z,42.96
2018-08-17T23:42:39.948Z,40.86
2018-08-17T23:45:13.863Z,44.10
2018-08-17T23:47:44.544Z,43.36
2018-08-17T23:50:16.016Z,43.23
2018-08-17T23:52:46.648Z,46.63
2018-08-17T23:55:18.537Z,45.46
2018-08-17T23:57:49.150Z,43.63
